sensor_id;sensor_type;location;lat;lon;timestamp;pressure;altitude;pressure_sealevel;temperature;humidity
63405;BME280;49541;57.840;12.306;2024-02-26T00:03:53;99661.41;;;6.55;100.00
63405;BME280;49541;57.840;12.306;2024-02-26T00:08:55;99665.41;;;6.28;100.00
63405;BME280;49541;57.840;12.306;2024-02-26T00:13:55;99669.34;;;6.34;100.00
63405;BME280;49541;57.840;12.306;2024-02-26T00:18:55;99660.78;;;6.63;100.00
63405;BME280;49541;57.840;12.306;2024-02-26T00:23:55;99668.59;;;6.43;100.00
63405;BME280;49541;57.840;12.306;2024-02-26T00:28:56;99663.94;;;6.35;100.00
63405;BME280;49541;57.840;12.306;2024-02-26T00:33:56;99658.38;;;6.18;100.00
63405;BME280;49541;57.840;12.306;2024-02-26T00:38:56;99656.03;;;6.03;100.00
63405;BME280;49541;57.840;12.306;2024-02-26T00:43:56;99669.47;;;6.11;100.00
63405;BME280;49541;57.840;12.306;2024-02-26T00:48:57;99676.19;;;6.04;100.00
63405;BME280;49541;57.840;12.306;2024-02-26T00:53:57;99671.19;;;6.01;100.00
63405;BME280;49541;57.840;12.306;2024-02-26T00:58:58;99674.47;;;6.14;100.00
63405;BME280;49541;57.840;12.306;2024-02-26T01:03:58;99676.47;;;6.01;100.00
63405;BME280;49541;57.840;12.306;2024-02-26T01:08:58;99673.38;;;6.17;100.00
63405;BME280;49541;57.840;12.306;2024-02-26T01:13:59;99682.84;;;5.87;100.00
63405;BME280;49541;57.840;12.306;2024-02-26T01:18:59;99671.69;;;5.84;100.00
63405;BME280;49541;57.840;12.306;2024-02-26T01:23:59;99679.81;;;6.03;100.00
63405;BME280;49541;57.840;12.306;2024-02-26T01:28:59;99674.56;;;6.24;100.00
63405;BME280;49541;57.840;12.306;2024-02-26T01:34:00;99671.13;;;6.12;100.00
63405;BME280;49541;57.840;12.306;2024-02-26T01:39:01;99675.66;;;5.89;100.00
63405;BME280;49541;57.840;12.306;2024-02-26T01:44:03;99681.19;;;6.19;100.00
63405;BME280;49541;57.840;12.306;2024-02-26T01:49:03;99683.28;;;6.04;100.00
63405;BME280;49541;57.840;12.306;2024-02-26T01:54:04;99686.59;;;6.17;100.00
63405;BME280;49541;57.840;12.306;2024-02-26T01:59:04;99690.63;;;5.89;100.00
63405;BME280;49541;57.840;12.306;2024-02-26T02:04:05;99691.72;;;5.98;100.00
63405;BME280;49541;57.840;12.306;2024-02-26T02:09:05;99696.28;;;6.28;100.00
63405;BME280;49541;57.840;12.306;2024-02-26T02:14:07;99698.97;;;6.17;100.00
63405;BME280;49541;57.840;12.306;2024-02-26T02:19:07;99707.13;;;6.25;100.00
63405;BME280;49541;57.840;12.306;2024-02-26T02:24:08;99701.22;;;6.53;100.00
63405;BME280;49541;57.840;12.306;2024-02-26T02:29:08;99699.97;;;6.36;100.00
63405;BME280;49541;57.840;12.306;2024-02-26T02:34:09;99694.97;;;6.01;100.00
63405;BME280;49541;57.840;12.306;2024-02-26T02:39:09;99711.56;;;6.24;100.00
63405;BME280;49541;57.840;12.306;2024-02-26T02:44:10;99713.25;;;6.25;100.00
63405;BME280;49541;57.840;12.306;2024-02-26T02:49:10;99712.31;;;6.15;100.00
63405;BME280;49541;57.840;12.306;2024-02-26T02:54:10;99707.22;;;6.55;100.00
63405;BME280;49541;57.840;12.306;2024-02-26T02:59:11;99710.78;;;6.66;100.00
63405;BME280;49541;57.840;12.306;2024-02-26T03:04:11;99721.84;;;6.60;100.00
63405;BME280;49541;57.840;12.306;2024-02-26T03:09:12;99721.66;;;6.51;100.00
63405;BME280;49541;57.840;12.306;2024-02-26T03:14:12;99729.41;;;6.43;100.00
63405;BME280;49541;57.840;12.306;2024-02-26T03:19:15;99728.16;;;6.47;100.00
63405;BME280;49541;57.840;12.306;2024-02-26T03:24:18;99734.50;;;6.24;100.00
63405;BME280;49541;57.840;12.306;2024-02-26T03:29:19;99746.16;;;6.32;100.00
63405;BME280;49541;57.840;12.306;2024-02-26T03:34:19;99741.19;;;6.60;100.00
63405;BME280;49541;57.840;12.306;2024-02-26T03:39:19;99746.94;;;6.44;100.00
63405;BME280;49541;57.840;12.306;2024-02-26T03:44:20;99754.03;;;6.44;100.00
63405;BME280;49541;57.840;12.306;2024-02-26T03:49:20;99750.41;;;6.45;100.00
63405;BME280;49541;57.840;12.306;2024-02-26T03:54:20;99755.47;;;6.48;100.00
63405;BME280;49541;57.840;12.306;2024-02-26T03:59:20;99753.72;;;6.37;100.00
63405;BME280;49541;57.840;12.306;2024-02-26T04:04:23;99752.50;;;6.30;100.00
63405;BME280;49541;57.840;12.306;2024-02-26T04:09:23;99764.22;;;6.48;100.00
63405;BME280;49541;57.840;12.306;2024-02-26T04:14:24;99766.53;;;6.42;100.00
63405;BME280;49541;57.840;12.306;2024-02-26T04:19:24;99768.09;;;6.44;100.00
63405;BME280;49541;57.840;12.306;2024-02-26T04:24:24;99775.19;;;6.44;100.00
63405;BME280;49541;57.840;12.306;2024-02-26T04:29:24;99774.84;;;6.37;100.00
63405;BME280;49541;57.840;12.306;2024-02-26T04:34:25;99775.81;;;6.36;100.00
63405;BME280;49541;57.840;12.306;2024-02-26T04:39:25;99774.25;;;6.33;100.00
63405;BME280;49541;57.840;12.306;2024-02-26T04:44:26;99784.38;;;6.28;100.00
63405;BME280;49541;57.840;12.306;2024-02-26T04:49:26;99782.72;;;5.93;100.00
63405;BME280;49541;57.840;12.306;2024-02-26T04:54:26;99797.66;;;6.06;100.00
63405;BME280;49541;57.840;12.306;2024-02-26T04:59:26;99801.31;;;6.37;100.00
63405;BME280;49541;57.840;12.306;2024-02-26T05:04:26;99803.13;;;6.25;100.00
63405;BME280;49541;57.840;12.306;2024-02-26T05:09:27;99814.34;;;6.50;100.00
63405;BME280;49541;57.840;12.306;2024-02-26T05:14:27;99815.94;;;6.41;100.00
63405;BME280;49541;57.840;12.306;2024-02-26T05:19:27;99815.81;;;6.43;100.00
63405;BME280;49541;57.840;12.306;2024-02-26T05:24:27;99829.66;;;6.35;100.00
63405;BME280;49541;57.840;12.306;2024-02-26T05:29:28;99834.41;;;5.98;100.00
63405;BME280;49541;57.840;12.306;2024-02-26T05:34:28;99847.69;;;6.30;100.00
63405;BME280;49541;57.840;12.306;2024-02-26T05:39:30;99845.72;;;6.11;100.00
63405;BME280;49541;57.840;12.306;2024-02-26T05:44:30;99853.03;;;6.07;100.00
63405;BME280;49541;57.840;12.306;2024-02-26T05:49:30;99856.28;;;6.54;100.00
63405;BME280;49541;57.840;12.306;2024-02-26T05:54:31;99868.34;;;6.36;100.00
63405;BME280;49541;57.840;12.306;2024-02-26T05:59:31;99878.44;;;6.42;100.00
63405;BME280;49541;57.840;12.306;2024-02-26T06:04:31;99885.56;;;6.19;100.00
63405;BME280;49541;57.840;12.306;2024-02-26T06:09:32;99893.50;;;6.19;100.00
63405;BME280;49541;57.840;12.306;2024-02-26T06:14:32;99897.66;;;6.44;100.00
63405;BME280;49541;57.840;12.306;2024-02-26T06:19:32;99906.00;;;6.28;100.00
63405;BME280;49541;57.840;12.306;2024-02-26T06:24:32;99915.59;;;6.29;100.00
63405;BME280;49541;57.840;12.306;2024-02-26T06:29:32;99916.31;;;6.31;100.00
63405;BME280;49541;57.840;12.306;2024-02-26T06:34:33;99918.09;;;6.42;100.00
63405;BME280;49541;57.840;12.306;2024-02-26T06:39:33;99921.00;;;6.17;100.00
63405;BME280;49541;57.840;12.306;2024-02-26T06:44:33;99929.66;;;6.30;100.00
63405;BME280;49541;57.840;12.306;2024-02-26T06:49:33;99946.94;;;6.34;100.00
63405;BME280;49541;57.840;12.306;2024-02-26T06:54:34;99949.38;;;6.14;100.00
63405;BME280;49541;57.840;12.306;2024-02-26T06:59:34;99955.38;;;6.28;100.00
63405;BME280;49541;57.840;12.306;2024-02-26T07:04:34;99952.59;;;6.29;100.00
63405;BME280;49541;57.840;12.306;2024-02-26T07:09:34;99961.84;;;6.01;100.00
63405;BME280;49541;57.840;12.306;2024-02-26T07:14:35;99961.75;;;6.14;100.00
63405;BME280;49541;57.840;12.306;2024-02-26T07:19:37;99961.38;;;6.41;100.00
63405;BME280;49541;57.840;12.306;2024-02-26T07:24:37;99973.34;;;6.79;100.00
63405;BME280;49541;57.840;12.306;2024-02-26T07:29:38;99968.91;;;6.68;100.00
63405;BME280;49541;57.840;12.306;2024-02-26T07:34:38;99978.31;;;6.61;100.00
63405;BME280;49541;57.840;12.306;2024-02-26T07:39:41;99987.91;;;6.73;100.00
63405;BME280;49541;57.840;12.306;2024-02-26T07:44:41;99995.81;;;6.85;100.00
63405;BME280;49541;57.840;12.306;2024-02-26T07:49:43;99997.66;;;6.84;100.00
63405;BME280;49541;57.840;12.306;2024-02-26T07:54:43;100004.03;;;7.14;100.00
63405;BME280;49541;57.840;12.306;2024-02-26T07:59:43;100011.59;;;7.30;100.00
63405;BME280;49541;57.840;12.306;2024-02-26T08:04:44;100017.66;;;7.21;100.00
63405;BME280;49541;57.840;12.306;2024-02-26T08:09:45;100019.56;;;7.18;100.00
63405;BME280;49541;57.840;12.306;2024-02-26T08:14:46;100035.81;;;7.25;100.00
63405;BME280;49541;57.840;12.306;2024-02-26T08:19:46;100027.34;;;7.31;100.00
63405;BME280;49541;57.840;12.306;2024-02-26T08:24:46;100038.34;;;7.15;100.00
63405;BME280;49541;57.840;12.306;2024-02-26T08:29:46;100039.66;;;7.21;100.00
63405;BME280;49541;57.840;12.306;2024-02-26T08:34:47;100050.28;;;6.98;100.00
63405;BME280;49541;57.840;12.306;2024-02-26T08:39:47;100058.97;;;6.78;100.00
63405;BME280;49541;57.840;12.306;2024-02-26T08:44:47;100074.16;;;6.65;100.00
63405;BME280;49541;57.840;12.306;2024-02-26T08:49:48;100084.09;;;7.06;100.00
63405;BME280;49541;57.840;12.306;2024-02-26T08:54:48;100088.25;;;7.31;100.00
63405;BME280;49541;57.840;12.306;2024-02-26T08:59:48;100091.59;;;7.33;100.00
63405;BME280;49541;57.840;12.306;2024-02-26T09:04:49;100097.16;;;7.30;100.00
63405;BME280;49541;57.840;12.306;2024-02-26T09:09:51;100101.50;;;7.20;100.00
63405;BME280;49541;57.840;12.306;2024-02-26T09:14:51;100106.34;;;7.58;100.00
63405;BME280;49541;57.840;12.306;2024-02-26T09:19:52;100116.06;;;7.69;100.00
63405;BME280;49541;57.840;12.306;2024-02-26T09:24:52;100114.34;;;7.47;100.00
63405;BME280;49541;57.840;12.306;2024-02-26T09:29:53;100121.75;;;6.98;100.00
63405;BME280;49541;57.840;12.306;2024-02-26T09:34:53;100131.16;;;6.80;100.00
63405;BME280;49541;57.840;12.306;2024-02-26T09:39:54;100139.56;;;7.19;100.00
63405;BME280;49541;57.840;12.306;2024-02-26T09:44:54;100137.47;;;7.45;100.00
63405;BME280;49541;57.840;12.306;2024-02-26T09:49:57;100145.66;;;7.31;100.00
63405;BME280;49541;57.840;12.306;2024-02-26T09:54:59;100156.13;;;7.44;100.00
63405;BME280;49541;57.840;12.306;2024-02-26T09:59:59;100153.75;;;7.29;100.00
63405;BME280;49541;57.840;12.306;2024-02-26T10:05:03;100158.53;;;7.35;100.00
63405;BME280;49541;57.840;12.306;2024-02-26T10:10:07;100163.00;;;7.35;100.00
63405;BME280;49541;57.840;12.306;2024-02-26T10:15:08;100158.31;;;7.38;100.00
63405;BME280;49541;57.840;12.306;2024-02-26T10:20:11;100170.22;;;7.33;100.00
63405;BME280;49541;57.840;12.306;2024-02-26T10:25:12;100179.44;;;7.61;100.00
63405;BME280;49541;57.840;12.306;2024-02-26T10:30:19;100184.94;;;7.80;100.00
63405;BME280;49541;57.840;12.306;2024-02-26T10:35:20;100190.06;;;7.93;100.00
63405;BME280;49541;57.840;12.306;2024-02-26T10:40:20;100190.59;;;8.19;100.00
63405;BME280;49541;57.840;12.306;2024-02-26T10:45:20;100196.97;;;8.17;100.00
63405;BME280;49541;57.840;12.306;2024-02-26T10:50:21;100195.56;;;8.34;100.00
63405;BME280;49541;57.840;12.306;2024-02-26T10:55:21;100197.56;;;8.20;100.00
63405;BME280;49541;57.840;12.306;2024-02-26T11:00:22;100199.31;;;8.43;100.00
63405;BME280;49541;57.840;12.306;2024-02-26T11:05:22;100199.13;;;8.23;100.00
63405;BME280;49541;57.840;12.306;2024-02-26T11:10:23;100215.38;;;8.41;100.00
63405;BME280;49541;57.840;12.306;2024-02-26T11:15:25;100210.38;;;8.15;100.00
63405;BME280;49541;57.840;12.306;2024-02-26T11:20:25;100214.81;;;8.15;100.00
63405;BME280;49541;57.840;12.306;2024-02-26T11:25:28;100215.69;;;8.04;100.00
63405;BME280;49541;57.840;12.306;2024-02-26T11:30:29;100220.38;;;8.12;100.00
63405;BME280;49541;57.840;12.306;2024-02-26T11:35:30;100213.66;;;8.08;100.00
63405;BME280;49541;57.840;12.306;2024-02-26T11:40:31;100219.13;;;7.95;100.00
63405;BME280;49541;57.840;12.306;2024-02-26T11:50:41;100233.50;;;7.81;100.00
63405;BME280;49541;57.840;12.306;2024-02-26T11:55:42;100231.03;;;7.89;100.00
63405;BME280;49541;57.840;12.306;2024-02-26T12:00:42;100233.81;;;7.99;100.00
63405;BME280;49541;57.840;12.306;2024-02-26T12:05:42;100238.78;;;8.25;100.00
63405;BME280;49541;57.840;12.306;2024-02-26T12:10:43;100236.19;;;8.02;100.00
63405;BME280;49541;57.840;12.306;2024-02-26T12:15:45;100246.34;;;7.97;100.00
63405;BME280;49541;57.840;12.306;2024-02-26T12:20:46;100249.09;;;8.07;100.00
63405;BME280;49541;57.840;12.306;2024-02-26T12:25:47;100256.88;;;7.76;100.00
63405;BME280;49541;57.840;12.306;2024-02-26T12:30:48;100259.06;;;7.71;100.00
63405;BME280;49541;57.840;12.306;2024-02-26T12:35:48;100257.50;;;7.46;100.00
63405;BME280;49541;57.840;12.306;2024-02-26T12:40:49;100269.81;;;8.02;100.00
63405;BME280;49541;57.840;12.306;2024-02-26T12:45:50;100278.19;;;7.86;100.00
63405;BME280;49541;57.840;12.306;2024-02-26T12:50:50;100288.03;;;7.95;100.00
63405;BME280;49541;57.840;12.306;2024-02-26T12:55:51;100282.53;;;7.75;100.00
63405;BME280;49541;57.840;12.306;2024-02-26T13:00:51;100284.94;;;7.56;100.00
63405;BME280;49541;57.840;12.306;2024-02-26T13:05:52;100292.44;;;7.51;100.00
63405;BME280;49541;57.840;12.306;2024-02-26T13:10:52;100295.78;;;7.75;100.00
63405;BME280;49541;57.840;12.306;2024-02-26T13:16:02;100306.25;;;7.66;100.00
63405;BME280;49541;57.840;12.306;2024-02-26T13:21:10;100316.75;;;7.67;100.00
63405;BME280;49541;57.840;12.306;2024-02-26T13:26:11;100314.28;;;8.09;100.00
63405;BME280;49541;57.840;12.306;2024-02-26T13:31:12;100319.34;;;8.12;100.00
63405;BME280;49541;57.840;12.306;2024-02-26T13:36:12;100322.63;;;7.48;100.00
63405;BME280;49541;57.840;12.306;2024-02-26T13:41:14;100323.72;;;6.52;100.00
63405;BME280;49541;57.840;12.306;2024-02-26T13:46:15;100335.31;;;6.63;100.00
63405;BME280;49541;57.840;12.306;2024-02-26T13:51:15;100331.31;;;6.57;100.00
63405;BME280;49541;57.840;12.306;2024-02-26T13:56:16;100342.25;;;6.88;100.00
63405;BME280;49541;57.840;12.306;2024-02-26T14:01:17;100352.56;;;6.80;100.00
63405;BME280;49541;57.840;12.306;2024-02-26T14:06:17;100356.56;;;6.85;100.00
63405;BME280;49541;57.840;12.306;2024-02-26T14:11:17;100372.00;;;6.91;100.00
63405;BME280;49541;57.840;12.306;2024-02-26T14:16:21;100374.81;;;6.77;100.00
63405;BME280;49541;57.840;12.306;2024-02-26T14:21:21;100391.44;;;6.90;100.00
63405;BME280;49541;57.840;12.306;2024-02-26T14:26:22;100392.00;;;7.07;100.00
63405;BME280;49541;57.840;12.306;2024-02-26T14:31:22;100389.53;;;7.16;100.00
63405;BME280;49541;57.840;12.306;2024-02-26T14:36:22;100398.78;;;7.11;100.00
63405;BME280;49541;57.840;12.306;2024-02-26T14:41:23;100402.69;;;6.70;100.00
63405;BME280;49541;57.840;12.306;2024-02-26T14:46:23;100422.44;;;6.77;100.00
63405;BME280;49541;57.840;12.306;2024-02-26T14:51:23;100436.94;;;6.47;100.00
63405;BME280;49541;57.840;12.306;2024-02-26T14:56:24;100439.75;;;6.20;100.00
63405;BME280;49541;57.840;12.306;2024-02-26T15:01:24;100441.53;;;6.32;100.00
63405;BME280;49541;57.840;12.306;2024-02-26T15:06:24;100448.22;;;6.00;100.00
63405;BME280;49541;57.840;12.306;2024-02-26T15:11:25;100460.19;;;6.05;100.00
63405;BME280;49541;57.840;12.306;2024-02-26T15:16:25;100473.38;;;6.31;100.00
63405;BME280;49541;57.840;12.306;2024-02-26T15:21:26;100463.00;;;6.28;100.00
63405;BME280;49541;57.840;12.306;2024-02-26T15:26:26;100465.63;;;6.28;100.00
63405;BME280;49541;57.840;12.306;2024-02-26T15:31:26;100471.81;;;6.15;100.00
63405;BME280;49541;57.840;12.306;2024-02-26T15:36:27;100484.78;;;6.44;100.00
63405;BME280;49541;57.840;12.306;2024-02-26T15:41:27;100496.19;;;6.45;100.00
63405;BME280;49541;57.840;12.306;2024-02-26T15:46:27;100493.53;;;6.57;100.00
63405;BME280;49541;57.840;12.306;2024-02-26T15:51:28;100498.31;;;6.52;100.00
63405;BME280;49541;57.840;12.306;2024-02-26T15:56:28;100497.25;;;6.42;100.00
63405;BME280;49541;57.840;12.306;2024-02-26T16:01:29;100505.09;;;6.31;100.00
63405;BME280;49541;57.840;12.306;2024-02-26T16:06:36;100522.13;;;6.01;100.00
63405;BME280;49541;57.840;12.306;2024-02-26T16:11:38;100536.28;;;6.26;100.00
63405;BME280;49541;57.840;12.306;2024-02-26T16:16:39;100530.25;;;6.24;100.00
63405;BME280;49541;57.840;12.306;2024-02-26T16:21:42;100538.31;;;6.09;100.00
63405;BME280;49541;57.840;12.306;2024-02-26T16:26:42;100545.09;;;6.01;100.00
63405;BME280;49541;57.840;12.306;2024-02-26T16:31:43;100563.84;;;5.70;100.00
63405;BME280;49541;57.840;12.306;2024-02-26T16:36:43;100564.25;;;5.77;100.00
63405;BME280;49541;57.840;12.306;2024-02-26T16:41:43;100570.63;;;5.87;100.00
63405;BME280;49541;57.840;12.306;2024-02-26T16:46:43;100576.06;;;5.71;100.00
63405;BME280;49541;57.840;12.306;2024-02-26T16:51:44;100580.03;;;5.79;100.00
63405;BME280;49541;57.840;12.306;2024-02-26T16:56:44;100589.09;;;5.74;100.00
63405;BME280;49541;57.840;12.306;2024-02-26T17:01:44;100603.09;;;5.89;100.00
63405;BME280;49541;57.840;12.306;2024-02-26T17:06:45;100616.06;;;5.80;100.00
63405;BME280;49541;57.840;12.306;2024-02-26T17:11:46;100632.56;;;5.56;100.00
63405;BME280;49541;57.840;12.306;2024-02-26T17:16:46;100627.94;;;5.60;100.00
63405;BME280;49541;57.840;12.306;2024-02-26T17:21:47;100619.66;;;5.79;100.00
63405;BME280;49541;57.840;12.306;2024-02-26T17:26:47;100629.84;;;5.98;100.00
63405;BME280;49541;57.840;12.306;2024-02-26T17:31:47;100627.16;;;6.12;100.00
63405;BME280;49541;57.840;12.306;2024-02-26T17:36:47;100629.13;;;6.08;100.00
63405;BME280;49541;57.840;12.306;2024-02-26T17:41:48;100638.38;;;6.15;100.00
63405;BME280;49541;57.840;12.306;2024-02-26T17:46:48;100648.63;;;6.20;100.00
63405;BME280;49541;57.840;12.306;2024-02-26T17:51:49;100664.19;;;6.25;100.00
63405;BME280;49541;57.840;12.306;2024-02-26T17:56:49;100667.31;;;6.17;100.00
63405;BME280;49541;57.840;12.306;2024-02-26T18:01:52;100667.06;;;5.94;100.00
63405;BME280;49541;57.840;12.306;2024-02-26T18:06:52;100672.94;;;6.12;100.00
63405;BME280;49541;57.840;12.306;2024-02-26T18:11:53;100667.34;;;6.30;100.00
63405;BME280;49541;57.840;12.306;2024-02-26T18:16:55;100662.16;;;6.15;100.00
63405;BME280;49541;57.840;12.306;2024-02-26T18:21:56;100663.81;;;5.77;100.00
63405;BME280;49541;57.840;12.306;2024-02-26T18:26:58;100673.97;;;5.83;100.00
63405;BME280;49541;57.840;12.306;2024-02-26T18:31:58;100677.09;;;5.89;100.00
63405;BME280;49541;57.840;12.306;2024-02-26T18:37:00;100686.31;;;5.97;100.00
63405;BME280;49541;57.840;12.306;2024-02-26T18:42:01;100691.19;;;5.75;100.00
63405;BME280;49541;57.840;12.306;2024-02-26T18:47:03;100702.28;;;5.53;100.00
63405;BME280;49541;57.840;12.306;2024-02-26T18:52:04;100715.19;;;5.58;100.00
63405;BME280;49541;57.840;12.306;2024-02-26T18:57:05;100720.78;;;5.53;100.00
63405;BME280;49541;57.840;12.306;2024-02-26T19:02:05;100721.97;;;5.62;100.00
63405;BME280;49541;57.840;12.306;2024-02-26T19:07:06;100726.28;;;5.78;100.00
63405;BME280;49541;57.840;12.306;2024-02-26T19:12:06;100727.50;;;5.72;100.00
63405;BME280;49541;57.840;12.306;2024-02-26T19:17:06;100734.28;;;5.49;100.00
63405;BME280;49541;57.840;12.306;2024-02-26T19:22:07;100736.16;;;5.18;100.00
63405;BME280;49541;57.840;12.306;2024-02-26T19:27:08;100737.03;;;5.04;100.00
63405;BME280;49541;57.840;12.306;2024-02-26T19:32:09;100752.56;;;4.95;100.00
63405;BME280;49541;57.840;12.306;2024-02-26T19:37:12;100751.56;;;4.97;100.00
63405;BME280;49541;57.840;12.306;2024-02-26T19:42:12;100745.94;;;4.73;100.00
63405;BME280;49541;57.840;12.306;2024-02-26T19:47:13;100745.69;;;4.78;100.00
63405;BME280;49541;57.840;12.306;2024-02-26T19:52:14;100756.81;;;5.11;100.00
63405;BME280;49541;57.840;12.306;2024-02-26T19:57:14;100758.97;;;5.48;100.00
63405;BME280;49541;57.840;12.306;2024-02-26T20:02:14;100770.78;;;5.42;100.00
63405;BME280;49541;57.840;12.306;2024-02-26T20:07:14;100765.59;;;5.26;100.00
63405;BME280;49541;57.840;12.306;2024-02-26T20:12:16;100770.31;;;5.36;100.00
63405;BME280;49541;57.840;12.306;2024-02-26T20:17:16;100776.09;;;5.84;100.00
63405;BME280;49541;57.840;12.306;2024-02-26T20:22:17;100776.84;;;6.00;100.00
63405;BME280;49541;57.840;12.306;2024-02-26T20:27:17;100774.59;;;5.80;100.00
63405;BME280;49541;57.840;12.306;2024-02-26T20:32:18;100785.22;;;5.92;100.00
63405;BME280;49541;57.840;12.306;2024-02-26T20:37:21;100789.16;;;5.72;100.00
63405;BME280;49541;57.840;12.306;2024-02-26T20:42:22;100790.06;;;6.00;100.00
63405;BME280;49541;57.840;12.306;2024-02-26T20:47:22;100794.19;;;6.04;100.00
63405;BME280;49541;57.840;12.306;2024-02-26T20:52:23;100806.44;;;5.91;100.00
63405;BME280;49541;57.840;12.306;2024-02-26T20:57:23;100810.69;;;6.08;100.00
63405;BME280;49541;57.840;12.306;2024-02-26T21:02:24;100815.75;;;6.25;100.00
63405;BME280;49541;57.840;12.306;2024-02-26T21:07:24;100823.63;;;6.12;100.00
63405;BME280;49541;57.840;12.306;2024-02-26T21:12:24;100835.16;;;5.83;100.00
63405;BME280;49541;57.840;12.306;2024-02-26T21:17:25;100838.91;;;5.93;100.00
63405;BME280;49541;57.840;12.306;2024-02-26T21:22:25;100842.53;;;5.92;100.00
63405;BME280;49541;57.840;12.306;2024-02-26T21:27:26;100841.03;;;5.73;100.00
63405;BME280;49541;57.840;12.306;2024-02-26T21:32:26;100845.38;;;6.03;100.00
63405;BME280;49541;57.840;12.306;2024-02-26T21:37:27;100854.91;;;5.77;100.00
63405;BME280;49541;57.840;12.306;2024-02-26T21:42:27;100861.31;;;5.59;100.00
63405;BME280;49541;57.840;12.306;2024-02-26T21:47:27;100851.59;;;5.73;100.00
63405;BME280;49541;57.840;12.306;2024-02-26T21:52:27;100858.56;;;5.89;100.00
63405;BME280;49541;57.840;12.306;2024-02-26T21:57:28;100864.41;;;6.08;100.00
63405;BME280;49541;57.840;12.306;2024-02-26T22:02:28;100866.50;;;6.03;100.00
63405;BME280;49541;57.840;12.306;2024-02-26T22:07:28;100868.28;;;5.88;100.00
63405;BME280;49541;57.840;12.306;2024-02-26T22:12:29;100884.44;;;5.69;100.00
63405;BME280;49541;57.840;12.306;2024-02-26T22:17:29;100891.44;;;5.70;100.00
63405;BME280;49541;57.840;12.306;2024-02-26T22:22:30;100882.72;;;5.83;100.00
63405;BME280;49541;57.840;12.306;2024-02-26T22:27:30;100884.53;;;5.82;100.00
63405;BME280;49541;57.840;12.306;2024-02-26T22:32:31;100890.38;;;5.73;100.00
63405;BME280;49541;57.840;12.306;2024-02-26T22:37:31;100891.13;;;5.61;100.00
63405;BME280;49541;57.840;12.306;2024-02-26T22:42:31;100892.72;;;5.63;100.00
63405;BME280;49541;57.840;12.306;2024-02-26T22:47:32;100900.59;;;6.08;100.00
63405;BME280;49541;57.840;12.306;2024-02-26T22:52:32;100898.44;;;6.00;100.00
63405;BME280;49541;57.840;12.306;2024-02-26T22:57:32;100908.69;;;5.90;100.00
63405;BME280;49541;57.840;12.306;2024-02-26T23:02:32;100904.66;;;5.99;100.00
63405;BME280;49541;57.840;12.306;2024-02-26T23:07:33;100911.03;;;5.81;100.00
63405;BME280;49541;57.840;12.306;2024-02-26T23:12:34;100925.56;;;5.59;100.00
63405;BME280;49541;57.840;12.306;2024-02-26T23:17:34;100919.38;;;5.74;100.00
63405;BME280;49541;57.840;12.306;2024-02-26T23:22:35;100920.69;;;5.82;100.00
63405;BME280;49541;57.840;12.306;2024-02-26T23:27:35;100929.34;;;5.55;100.00
63405;BME280;49541;57.840;12.306;2024-02-26T23:32:36;100928.91;;;6.20;100.00
63405;BME280;49541;57.840;12.306;2024-02-26T23:37:37;100928.69;;;6.23;100.00
63405;BME280;49541;57.840;12.306;2024-02-26T23:42:37;100936.56;;;5.96;100.00
63405;BME280;49541;57.840;12.306;2024-02-26T23:47:37;100931.75;;;6.03;100.00
63405;BME280;49541;57.840;12.306;2024-02-26T23:52:38;100931.50;;;5.91;100.00
63405;BME280;49541;57.840;12.306;2024-02-26T23:57:38;100928.78;;;5.93;100.00
